Time;durP1;ratioP1;P1;durP2;ratioP2;P2;SDS_P1;SDS_P2;PMS_P1;PMS_P2;Temp;Humidity;BMP_temperature;BMP_pressure;BME280_temperature;BME280_humidity;BME280_pressure;Samples;Min_cycle;Max_cycle;Signal;HPM_P1;HPM_P2
2023/10/18 00:01:23;;;;;;;7.53;6.15;;;;;;;7.45;64.43;99289.09;5128639;28;20079;-75
2023/10/18 00:03:50;;;;;;;7.93;6.70;;;;;;;7.11;64.33;99246.63;5130075;28;20051;-75
2023/10/18 00:06:18;;;;;;;8.35;7.35;;;;;;;7.45;64.91;99281.19;5128641;28;20051;-75
2023/10/18 00:08:46;;;;;;;9.45;6.53;;;;;;;7.47;64.92;99284.59;5131339;28;20039;-75
2023/10/18 00:11:15;;;;;;;9.05;7.18;;;;;;;7.32;64.49;99287.88;5130849;28;20062;-75
2023/10/18 00:13:42;;;;;;;7.55;6.82;;;;;;;7.28;64.83;99295.06;5130884;28;20039;-75
2023/10/18 00:16:09;;;;;;;9.68;7.00;;;;;;;7.25;64.83;99287.28;5130645;28;20044;-74
2023/10/18 00:18:36;;;;;;;8.35;7.22;;;;;;;7.38;64.92;99288.50;5130985;28;20327;-74
2023/10/18 00:21:05;;;;;;;7.85;6.35;;;;;;;7.29;64.58;99288.84;5130546;28;20043;-75
2023/10/18 00:23:33;;;;;;;11.02;7.00;;;;;;;7.27;64.94;99285.44;5129834;28;20039;-73
2023/10/18 00:26:04;;;;;;;9.38;7.20;;;;;;;7.20;65.22;99283.97;5129523;28;20108;-74
2023/10/18 00:28:36;;;;;;;7.13;6.43;;;;;;;7.31;64.55;99278.25;5128357;28;20303;-75
2023/10/18 00:31:13;;;;;;;7.60;6.80;;;;;;;7.33;64.65;99279.94;5128059;28;20051;-74
2023/10/18 00:33:40;;;;;;;8.38;7.28;;;;;;;7.15;65.05;99264.88;5128677;28;20062;-75
2023/10/18 00:36:10;;;;;;;8.10;7.22;;;;;;;6.77;65.61;99240.09;5129063;28;20043;-75
2023/10/18 00:38:38;;;;;;;7.80;7.00;;;;;;;6.96;66.04;99269.19;5127911;28;20085;-74
2023/10/18 00:41:08;;;;;;;8.20;6.93;;;;;;;6.46;66.39;99179.94;5129030;28;20044;-74
2023/10/18 00:43:36;;;;;;;8.75;7.25;;;;;;;7.03;65.92;99252.22;5128065;28;20074;-74
2023/10/18 00:46:06;;;;;;;7.82;7.00;;;;;;;7.05;65.84;99258.28;5127783;28;20292;-74
2023/10/18 00:48:33;;;;;;;8.52;7.30;;;;;;;7.14;65.75;99254.38;5128598;28;20040;-73
2023/10/18 00:51:00;;;;;;;9.35;7.65;;;;;;;7.17;65.40;99247.22;5126952;28;20065;-73
2023/10/18 00:53:30;;;;;;;8.60;7.40;;;;;;;6.27;65.69;99121.94;5128683;28;20081;-74
2023/10/18 00:55:59;;;;;;;10.15;7.70;;;;;;;6.90;66.02;99245.75;5128431;28;20036;-73
2023/10/18 00:58:28;;;;;;;8.80;7.90;;;;;;;6.92;66.16;99241.25;5128661;28;20352;-74
2023/10/18 01:00:57;;;;;;;9.32;8.32;;;;;;;6.95;66.16;99244.63;5128355;28;20119;-74
2023/10/18 01:03:32;;;;;;;8.73;7.68;;;;;;;7.02;66.14;99243.44;5128159;28;20054;-74
2023/10/18 01:06:05;;;;;;;9.27;7.90;;;;;;;6.91;66.34;99235.13;5128194;28;20132;-74
2023/10/18 01:08:33;;;;;;;8.93;8.02;;;;;;;6.88;66.50;99235.28;5128435;28;20233;-74
2023/10/18 01:11:06;;;;;;;9.07;7.78;;;;;;;6.93;66.76;99221.91;5128279;28;20295;-74
2023/10/18 01:13:36;;;;;;;8.18;7.38;;;;;;;6.95;66.45;99220.06;5128300;28;20058;-73
2023/10/18 01:16:13;;;;;;;8.00;6.68;;;;;;;6.98;66.15;99218.16;5128314;28;20096;-73
2023/10/18 01:18:42;;;;;;;9.93;7.60;;;;;;;6.74;66.33;99190.19;5128284;28;20051;-73
2023/10/18 01:21:13;;;;;;;8.27;7.13;;;;;;;6.95;66.76;99222.69;5128243;28;20035;-73
2023/10/18 01:23:42;;;;;;;10.05;8.25;;;;;;;6.91;66.82;99219.34;5127917;28;20048;-73
2023/10/18 01:26:13;;;;;;;8.95;8.05;;;;;;;6.89;66.78;99217.69;5127882;28;20059;-73
2023/10/18 01:28:40;;;;;;;9.15;7.97;;;;;;;6.81;66.87;99220.63;5127182;28;20234;-73
2023/10/18 01:31:08;;;;;;;10.27;7.97;;;;;;;6.97;66.48;99221.72;5127629;28;20040;-74
2023/10/18 01:33:43;;;;;;;9.40;7.90;;;;;;;6.78;66.38;99194.41;5127949;28;20035;-73
2023/10/18 01:36:13;;;;;;;10.52;8.55;;;;;;;6.18;66.09;99109.16;5128182;28;20047;-74
2023/10/18 01:38:42;;;;;;;9.35;8.32;;;;;;;6.51;66.87;99171.84;5127805;28;20047;-73
2023/10/18 01:41:12;;;;;;;13.70;8.52;;;;;;;6.84;67.05;99223.16;5127760;28;20092;-73
2023/10/18 01:43:43;;;;;;;9.20;8.30;;;;;;;6.92;66.53;99221.03;5126556;28;20082;-73
2023/10/18 01:46:13;;;;;;;8.45;7.60;;;;;;;6.90;66.83;99214.97;5127463;28;20041;-73
2023/10/18 01:48:41;;;;;;;10.48;9.40;;;;;;;6.77;67.17;99215.53;5127964;28;20300;-74
2023/10/18 01:51:09;;;;;;;10.00;8.90;;;;;;;6.54;67.61;99195.41;5127269;28;20046;-74
2023/10/18 01:53:38;;;;;;;11.30;9.32;;;;;;;6.54;68.02;99233.13;5127444;27;20050;-73
2023/10/18 01:56:07;;;;;;;11.05;9.05;;;;;;;6.56;67.67;99223.41;5127746;28;20057;-73
2023/10/18 01:58:36;;;;;;;9.82;8.35;;;;;;;6.59;67.85;99220.66;5126310;28;20039;-73
2023/10/18 02:01:08;;;;;;;10.88;9.00;;;;;;;6.53;68.18;99218.25;5126124;28;20063;-73
2023/10/18 02:03:36;;;;;;;9.45;8.45;;;;;;;6.69;67.30;99219.34;5126198;28;20114;-73
2023/10/18 02:06:06;;;;;;;9.00;8.10;;;;;;;6.78;66.85;99217.25;5127315;28;20119;-73
2023/10/18 02:08:34;;;;;;;10.13;9.05;;;;;;;6.65;67.75;99206.38;5126994;28;20050;-73
2023/10/18 02:11:01;;;;;;;9.40;8.50;;;;;;;6.63;67.87;99211.69;5127134;28;20040;-73
2023/10/18 02:13:29;;;;;;;9.25;8.10;;;;;;;6.15;66.47;99103.16;5126894;28;20372;-74
2023/10/18 02:15:57;;;;;;;10.32;8.25;;;;;;;6.70;66.62;99193.88;5127204;28;20035;-73
2023/10/18 02:18:27;;;;;;;10.80;8.35;;;;;;;5.96;67.41;99079.38;5127321;28;20036;-73
2023/10/18 02:20:54;;;;;;;10.43;8.85;;;;;;;6.59;67.77;99206.63;5126033;28;20034;-73
2023/10/18 02:23:22;;;;;;;9.07;8.15;;;;;;;6.63;67.76;99208.22;5127016;28;20039;-73
2023/10/18 02:25:50;;;;;;;10.07;9.07;;;;;;;6.15;68.15;99151.38;5126932;28;20153;-73
2023/10/18 02:28:25;;;;;;;10.98;8.75;;;;;;;6.63;67.74;99201.16;5126987;28;20059;-73
2023/10/18 02:30:57;;;;;;;9.88;8.88;;;;;;;6.64;67.88;99196.75;5126748;28;20111;-73
2023/10/18 02:33:33;;;;;;;10.55;9.45;;;;;;;6.60;67.92;99195.16;5126880;28;20081;-73
2023/10/18 02:36:00;;;;;;;9.27;8.32;;;;;;;6.58;67.82;99211.03;5125736;28;20338;-73
2023/10/18 02:38:27;;;;;;;9.88;8.90;;;;;;;6.57;68.04;99206.69;5127028;28;20043;-73
2023/10/18 02:40:56;;;;;;;10.00;8.85;;;;;;;6.65;67.54;99207.22;5126673;28;20206;-73
2023/10/18 02:43:24;;;;;;;9.48;8.48;;;;;;;6.61;68.08;99196.88;5126660;28;20052;-73
2023/10/18 02:45:52;;;;;;;10.27;9.15;;;;;;;6.61;68.24;99208.28;5126701;28;20044;-73
2023/10/18 02:48:24;;;;;;;11.55;10.45;;;;;;;6.61;67.98;99205.63;5126384;28;20043;-73
2023/10/18 02:50:57;;;;;;;9.50;8.57;;;;;;;6.50;68.50;99212.25;5125588;28;20039;-74
2023/10/18 02:53:24;;;;;;;13.15;9.02;;;;;;;6.32;69.00;99212.09;5126584;28;20047;-73
2023/10/18 02:55:55;;;;;;;9.43;8.32;;;;;;;6.47;69.06;99212.38;5126235;28;20299;-73
2023/10/18 02:58:27;;;;;;;10.10;8.52;;;;;;;5.98;69.23;99178.38;5125441;28;20043;-73
2023/10/18 03:00:55;;;;;;;10.85;9.73;;;;;;;5.85;69.94;99185.03;5126345;28;20055;-73
2023/10/18 03:03:22;;;;;;;11.48;9.95;;;;;;;5.96;70.12;99213.53;5125401;28;20044;-74
2023/10/18 03:05:51;;;;;;;10.90;9.55;;;;;;;5.86;70.69;99215.66;5126465;28;20114;-74
2023/10/18 03:08:21;;;;;;;10.93;9.30;;;;;;;5.42;70.57;99126.19;5125432;28;20039;-74
2023/10/18 03:10:51;;;;;;;11.05;9.93;;;;;;;5.95;70.80;99212.69;5125599;28;20201;-74
2023/10/18 03:13:23;;;;;;;10.48;9.48;;;;;;;6.04;70.20;99199.16;5125482;28;20092;-75
2023/10/18 03:16:04;;;;;;;9.80;8.80;;;;;;;6.22;69.34;99199.34;5126290;28;20051;-75
2023/10/18 03:18:32;;;;;;;13.10;10.00;;;;;;;6.01;70.19;99193.16;5125227;28;20085;-75
2023/10/18 03:20:58;;;;;;;11.50;9.23;;;;;;;5.82;70.60;99166.72;5125102;28;20203;-75
2023/10/18 03:23:27;;;;;;;9.90;8.90;;;;;;;5.91;70.86;99194.44;5126245;28;20043;-75
2023/10/18 03:26:07;;;;;;;10.90;9.80;;;;;;;5.32;71.22;99127.44;5126225;28;20044;-75
2023/10/18 03:28:35;;;;;;;11.38;10.27;;;;;;;5.78;71.18;99192.28;5125746;28;20043;-74
2023/10/18 03:31:20;;;;;;;12.85;10.00;;;;;;;5.75;71.17;99192.41;5126007;28;20031;-75
2023/10/18 03:33:48;;;;;;;10.07;9.07;;;;;;;5.86;71.03;99186.72;5126417;28;20112;-75
2023/10/18 03:36:20;;;;;;;10.02;9.00;;;;;;;5.76;71.30;99177.47;5126122;28;20044;-75
2023/10/18 03:38:59;;;;;;;11.40;10.30;;;;;;;5.76;71.40;99182.75;5126351;28;20040;-75
2023/10/18 03:41:26;;;;;;;11.05;9.77;;;;;;;5.75;71.16;99175.78;5126347;28;20047;-75
2023/10/18 03:44:03;;;;;;;10.98;9.82;;;;;;;5.67;71.52;99176.06;5124855;28;20044;-75
2023/10/18 03:46:38;;;;;;;18.10;9.70;;;;;;;5.69;71.77;99170.75;5126042;28;20093;-75
2023/10/18 03:49:08;;;;;;;12.32;9.68;;;;;;;5.69;71.35;99170.75;5124913;28;20040;-75
2023/10/18 03:51:36;;;;;;;11.98;9.95;;;;;;;5.63;72.07;99168.34;5125085;28;20044;-75
2023/10/18 03:54:05;;;;;;;10.60;9.48;;;;;;;4.79;71.53;99035.72;5126282;28;20035;-75
2023/10/18 03:56:36;;;;;;;10.30;9.23;;;;;;;5.71;71.66;99174.16;5125861;28;20041;-75
2023/10/18 03:59:10;;;;;;;11.10;9.80;;;;;;;5.58;71.70;99170.31;5126574;28;20051;-75
2023/10/18 04:01:44;;;;;;;10.27;9.18;;;;;;;5.29;72.76;99148.59;5125578;28;20071;-75
2023/10/18 04:04:18;;;;;;;12.65;9.50;;;;;;;5.48;72.78;99163.66;5125905;28;20057;-74
2023/10/18 04:06:45;;;;;;;14.73;10.02;;;;;;;5.57;72.17;99164.19;5108748;28;20304;-75
2023/10/18 04:09:16;;;;;;;10.60;9.55;;;;;;;5.64;71.50;99160.41;5125043;28;20051;-75
2023/10/18 04:11:43;;;;;;;10.00;8.85;;;;;;;5.59;71.90;99174.63;5125827;28;20046;-74
2023/10/18 04:14:16;;;;;;;12.15;9.55;;;;;;;5.49;72.30;99155.72;5108080;28;20032;-75
2023/10/18 04:16:43;;;;;;;11.13;10.02;;;;;;;5.40;72.55;99151.66;5125499;28;20323;-74
2023/10/18 04:19:10;;;;;;;10.88;9.77;;;;;;;5.39;71.71;99107.91;5125484;28;20296;-74
2023/10/18 04:21:37;;;;;;;11.90;9.65;;;;;;;5.65;71.66;99148.97;5125978;28;20081;-74
2023/10/18 04:24:05;;;;;;;10.85;9.75;;;;;;;5.64;70.58;99112.22;5125377;28;20317;-74
2023/10/18 04:26:33;;;;;;;10.15;9.18;;;;;;;5.82;70.60;99145.69;5126828;28;20039;-74
2023/10/18 04:29:01;;;;;;;9.43;8.48;;;;;;;4.57;70.39;98942.06;5129322;28;20073;-74
2023/10/18 04:31:29;;;;;;;9.88;8.90;;;;;;;5.84;70.62;99154.38;5129485;28;20063;-75
2023/10/18 04:33:57;;;;;;;10.48;8.98;;;;;;;5.77;70.97;99147.63;5128343;28;20047;-74
2023/10/18 04:36:25;;;;;;;11.05;9.95;;;;;;;5.17;71.39;99069.38;5129311;28;20039;-74
2023/10/18 04:38:52;;;;;;;10.95;9.82;;;;;;;5.62;71.62;99156.97;5129409;28;20047;-74
2023/10/18 04:41:26;;;;;;;10.95;9.85;;;;;;;5.43;71.85;99156.81;5128987;28;20039;-74
2023/10/18 04:44:00;;;;;;;13.30;10.48;;;;;;;5.56;71.45;99153.72;5128140;28;20043;-74
2023/10/18 04:46:30;;;;;;;10.48;9.35;;;;;;;5.37;72.18;99169.31;5128749;28;20311;-74
2023/10/18 04:51:45;;;;;;;11.25;9.60;;;;;;;5.68;71.15;99169.03;5128674;28;20039;-74
2023/10/18 04:54:15;;;;;;;12.30;11.05;;;;;;;5.15;71.13;99103.56;5110994;28;20345;-74
2023/10/18 04:56:44;;;;;;;12.85;10.38;;;;;;;5.34;71.79;99159.78;5127623;28;20036;-74
2023/10/18 04:59:26;;;;;;;13.05;10.52;;;;;;;5.56;71.66;99170.34;5128885;28;20106;-74
2023/10/18 05:01:57;;;;;;;11.35;10.10;;;;;;;5.51;70.77;99147.78;5128281;28;20058;-74
2023/10/18 05:04:24;;;;;;;11.30;9.88;;;;;;;5.70;70.89;99172.47;5127958;28;20191;-75
2023/10/18 05:06:54;;;;;;;12.68;10.05;;;;;;;5.68;70.92;99171.66;5128123;28;20044;-75
2023/10/18 05:09:29;;;;;;;13.35;9.77;;;;;;;5.69;70.34;99166.34;5127274;28;20271;-75
2023/10/18 05:11:57;;;;;;;13.45;11.60;;;;;;;5.55;71.17;99168.63;5128103;28;20183;-75
2023/10/18 05:14:40;;;;;;;11.73;10.60;;;;;;;5.39;70.78;99144.69;5128681;28;20052;-75
2023/10/18 05:17:10;;;;;;;12.20;10.35;;;;;;;5.42;71.12;99159.50;5128024;28;20043;-75
2023/10/18 05:19:41;;;;;;;10.90;9.90;;;;;;;5.32;71.66;99168.63;5128014;28;20374;-75
2023/10/18 05:22:09;;;;;;;12.90;10.50;;;;;;;4.86;72.50;99135.25;5127849;28;20127;-75
2023/10/18 05:24:38;;;;;;;12.07;10.73;;;;;;;5.13;72.32;99168.44;5126983;28;20074;-75
2023/10/18 05:27:19;;;;;;;11.27;10.13;;;;;;;5.18;72.23;99179.66;5128005;28;20067;-75
2023/10/18 05:29:52;;;;;;;12.77;9.57;;;;;;;5.19;71.89;99172.63;5126832;28;20077;-75
2023/10/18 05:35:26;;;;;;;11.98;10.73;;;;;;;5.02;72.43;99170.59;5079372;28;20062;-75
2023/10/18 05:37:59;;;;;;;12.15;10.60;;;;;;;4.64;71.93;99080.88;5126688;28;20055;-75
2023/10/18 05:43:22;;;;;;;11.57;9.23;;;;;;;5.17;71.56;99154.28;5127736;28;20085;-75
2023/10/18 05:45:55;;;;;;;12.13;9.98;;;;;;;5.30;71.25;99152.94;5127432;28;20057;-75
2023/10/18 05:48:24;;;;;;;14.18;10.50;;;;;;;4.57;71.19;99050.53;5127779;28;20051;-75
2023/10/18 05:50:56;;;;;;;11.45;9.38;;;;;;;5.31;71.08;99154.66;5127575;28;20135;-75
2023/10/18 05:53:28;;;;;;;12.05;9.93;;;;;;;5.16;71.38;99151.72;5127467;28;20299;-75
2023/10/18 05:55:55;;;;;;;10.82;9.10;;;;;;;4.62;70.92;99042.47;5127473;28;20043;-75
2023/10/18 05:58:26;;;;;;;12.68;10.65;;;;;;;5.07;71.35;99250.09;5127139;28;20039;-75
2023/10/18 06:01:02;;;;;;;10.88;9.77;;;;;;;5.16;71.39;99165.72;5127413;28;20050;-75
2023/10/18 06:03:39;;;;;;;10.70;9.30;;;;;;;5.05;71.86;99165.25;5127383;28;20192;-75
2023/10/18 06:06:06;;;;;;;14.82;11.70;;;;;;;5.09;71.87;99161.59;5127292;28;20047;-75
2023/10/18 06:08:33;;;;;;;12.70;10.13;;;;;;;5.10;71.66;99169.41;5126975;28;20043;-75
2023/10/18 06:11:06;;;;;;;12.15;10.70;;;;;;;4.87;72.58;99161.47;5127500;28;20043;-75
2023/10/18 06:13:35;;;;;;;12.45;11.02;;;;;;;4.47;72.61;99109.50;5127262;28;20071;-74
2023/10/18 06:16:18;;;;;;;11.93;10.25;;;;;;;4.46;72.64;99089.41;5127073;28;20208;-75
2023/10/18 06:18:46;;;;;;;12.90;10.60;;;;;;;5.06;71.89;99170.44;5126914;28;20042;-75
2023/10/18 06:21:18;;;;;;;12.05;10.27;;;;;;;5.09;71.78;99159.81;5125851;28;20046;-75
2023/10/18 06:23:54;;;;;;;12.80;10.43;;;;;;;4.81;71.71;99128.41;5126217;28;20040;-74
2023/10/18 06:26:30;;;;;;;10.10;9.05;;;;;;;5.13;71.78;99165.81;5125802;28;20114;-75
2023/10/18 06:29:01;;;;;;;11.82;10.25;;;;;;;5.24;71.58;99178.56;5126875;28;20284;-74
2023/10/18 06:31:30;;;;;;;12.85;10.55;;;;;;;5.22;71.54;99183.03;5127129;28;20044;-75
2023/10/18 06:33:59;;;;;;;12.90;11.38;;;;;;;5.24;71.28;99179.44;5126827;28;20059;-75
2023/10/18 06:36:26;;;;;;;10.25;9.25;;;;;;;4.77;70.83;99111.03;5126413;28;20115;-75
2023/10/18 06:38:53;;;;;;;11.43;10.32;;;;;;;5.35;70.97;99177.28;5126671;28;20067;-75
2023/10/18 06:41:21;;;;;;;14.68;11.98;;;;;;;5.47;70.93;99175.97;5126288;28;20097;-73
2023/10/18 06:43:48;;;;;;;12.27;10.60;;;;;;;5.49;71.21;99171.50;5125423;28;20118;-73
2023/10/18 06:46:22;;;;;;;13.90;10.95;;;;;;;5.42;71.56;99175.28;5126580;28;20063;-73
2023/10/18 06:48:54;;;;;;;11.52;10.32;;;;;;;5.50;71.25;99170.59;5126332;27;20040;-74
2023/10/18 06:51:30;;;;;;;14.95;11.35;;;;;;;5.52;71.04;99170.53;5126889;28;20032;-74
2023/10/18 06:53:59;;;;;;;13.00;11.20;;;;;;;5.52;71.26;99160.00;5126288;28;20065;-74
2023/10/18 06:56:26;;;;;;;11.82;9.90;;;;;;;5.13;71.18;99079.13;5125270;28;20046;-74
2023/10/18 06:58:53;;;;;;;13.05;11.15;;;;;;;5.71;70.87;99158.41;5126123;28;20040;-74
2023/10/18 07:01:30;;;;;;;11.38;10.07;;;;;;;5.74;71.06;99163.53;5125496;28;20055;-74
2023/10/18 07:04:00;;;;;;;13.20;11.25;;;;;;;5.77;70.99;99171.31;5126637;28;20040;-74
2023/10/18 07:06:29;;;;;;;13.02;10.73;;;;;;;5.83;70.99;99170.22;5126276;28;20266;-74
2023/10/18 07:08:56;;;;;;;12.15;10.45;;;;;;;5.86;70.76;99160.44;5125957;28;20067;-74
2023/10/18 07:11:23;;;;;;;13.50;11.30;;;;;;;5.77;70.47;99129.22;5126173;28;20050;-74
2023/10/18 07:13:53;;;;;;;14.70;11.35;;;;;;;5.89;70.29;99149.78;5125029;28;20054;-74
2023/10/18 07:16:35;;;;;;;12.93;11.45;;;;;;;6.10;70.26;99156.81;5125049;28;20070;-74
2023/10/18 07:19:21;;;;;;;13.50;11.05;;;;;;;6.21;69.80;99161.66;5125817;28;20043;-74
2023/10/18 07:21:48;;;;;;;12.30;11.10;;;;;;;6.33;69.49;99152.41;5125874;28;20077;-74
2023/10/18 07:24:17;;;;;;;14.43;10.48;;;;;;;6.41;69.27;99153.81;5126105;28;20062;-74
2023/10/18 07:26:46;;;;;;;13.80;11.98;;;;;;;6.28;68.78;99120.16;5125864;28;20066;-74
2023/10/18 07:29:13;;;;;;;12.45;11.30;;;;;;;6.59;68.75;99156.59;5126129;28;20036;-74
2023/10/18 07:31:44;;;;;;;14.18;11.18;;;;;;;5.96;67.90;99061.81;5125980;28;20044;-74
2023/10/18 07:34:19;;;;;;;13.10;11.75;;;;;;;6.79;67.91;99159.22;5126390;28;20302;-74
2023/10/18 07:36:46;;;;;;;13.10;11.70;;;;;;;6.20;67.40;99048.56;5125977;28;20051;-74
2023/10/18 07:39:16;;;;;;;14.38;11.63;;;;;;;7.03;67.46;99154.72;5124886;28;20292;-74
2023/10/18 07:41:43;;;;;;;13.73;12.10;;;;;;;7.11;66.93;99152.59;5125108;28;20040;-74
2023/10/18 07:44:09;;;;;;;12.95;11.73;;;;;;;6.99;66.63;99122.38;5125576;28;20105;-74
2023/10/18 07:46:39;;;;;;;13.25;11.90;;;;;;;7.18;66.50;99156.66;5126240;28;20081;-74
2023/10/18 07:49:11;;;;;;;12.98;11.40;;;;;;;7.28;66.63;99143.94;5125860;28;20165;-73
2023/10/18 07:51:48;;;;;;;13.75;12.38;;;;;;;6.96;66.09;99079.50;5124607;28;20043;-74
2023/10/18 07:54:16;;;;;;;12.32;11.13;;;;;;;7.19;65.79;99078.47;5125840;28;20103;-74
2023/10/18 07:56:50;;;;;;;17.55;11.80;;;;;;;7.70;65.51;99141.13;5125023;28;20148;-74
2023/10/18 07:59:29;;;;;;;14.37;11.13;;;;;;;7.78;65.22;99128.44;5124750;28;20314;-74
2023/10/18 08:02:09;;;;;;;11.70;10.20;;;;;;;7.79;65.21;99130.16;5128602;28;20044;-74
2023/10/18 08:04:37;;;;;;;18.02;13.18;;;;;;;7.90;64.80;99116.44;5129557;28;20234;-74
2023/10/18 08:07:10;;;;;;;13.88;11.38;;;;;;;7.51;65.22;99037.44;5129963;28;20051;-74
2023/10/18 08:09:39;;;;;;;13.00;11.20;;;;;;;8.07;64.65;99110.34;5129558;28;20103;-74
2023/10/18 08:12:07;;;;;;;16.42;12.85;;;;;;;8.16;64.07;99120.47;5129607;28;20059;-75
2023/10/18 08:14:35;;;;;;;14.52;11.85;;;;;;;8.21;63.73;99110.53;5129800;28;20043;-74
2023/10/18 08:17:09;;;;;;;14.32;12.07;;;;;;;8.25;63.95;99106.81;5129132;28;20296;-74
2023/10/18 08:19:44;;;;;;;13.52;11.13;;;;;;;5.32;63.11;98586.16;5111558;28;20063;-74
2023/10/18 08:22:22;;;;;;;;;;;;;;;8.32;62.91;99101.16;5129916;28;20106;-74
2023/10/18 08:24:50;;;;;;;12.25;10.20;;;;;;;8.51;63.14;99098.44;5129203;28;19976;-74
2023/10/18 08:27:18;;;;;;;12.00;10.13;;;;;;;8.48;63.07;99095.09;5128933;28;20040;-74
2023/10/18 08:29:47;;;;;;;13.60;12.13;;;;;;;8.68;62.07;99087.88;5111345;28;20035;-74
2023/10/18 08:32:16;;;;;;;14.80;12.02;;;;;;;8.79;62.07;99091.72;5128909;28;20070;-74
2023/10/18 08:34:44;;;;;;;11.88;10.70;;;;;;;8.86;62.19;99093.13;5129418;28;20043;-74
2023/10/18 08:37:13;;;;;;;13.02;10.55;;;;;;;8.87;62.56;99089.53;5130030;28;20043;-74
2023/10/18 08:39:52;;;;;;;10.57;9.48;;;;;;;8.99;62.28;99080.97;5130538;28;20070;-74
2023/10/18 08:42:25;;;;;;;13.30;11.05;;;;;;;9.09;61.71;99078.69;5129151;28;20066;-74
2023/10/18 08:44:55;;;;;;;11.05;9.70;;;;;;;8.45;61.81;98966.69;5130286;28;20047;-74
2023/10/18 08:47:26;;;;;;;11.10;10.10;;;;;;;9.26;61.90;99073.38;5130463;28;20065;-74
2023/10/18 08:49:56;;;;;;;10.68;9.63;;;;;;;9.50;61.26;99069.44;5129373;28;20058;-74
2023/10/18 08:52:24;;;;;;;11.32;10.02;;;;;;;9.66;60.47;99064.13;5128593;28;20126;-75
2023/10/18 08:54:52;;;;;;;11.07;9.98;;;;;;;9.85;59.47;99067.47;5128706;28;20074;-75
2023/10/18 08:57:34;;;;;;;11.57;10.32;;;;;;;9.91;59.14;99063.59;5128541;28;20199;-75
2023/10/18 09:00:17;;;;;;;13.02;9.95;;;;;;;10.01;58.78;99061.28;5112981;28;20074;-75
2023/10/18 09:02:44;;;;;;;10.07;9.07;;;;;;;10.07;58.76;99063.59;5128342;28;20322;-75
2023/10/18 09:05:11;;;;;;;12.13;10.75;;;;;;;10.06;58.25;99064.53;5128554;28;20065;-75
2023/10/18 09:07:46;;;;;;;11.95;10.75;;;;;;;9.94;59.61;99066.94;5128540;28;20067;-74
2023/10/18 09:10:33;;;;;;;9.70;8.70;;;;;;;10.10;58.20;99056.31;5127367;28;20044;-75
2023/10/18 09:15:49;;;;;;;11.38;10.18;;;;;;;9.91;58.52;99022.09;5127140;28;20092;-75
2023/10/18 09:18:17;;;;;;;14.10;11.05;;;;;;;10.25;58.53;99049.28;5127285;28;20066;-75
2023/10/18 09:20:44;;;;;;;13.13;11.07;;;;;;;10.36;58.27;99048.63;5128217;28;20043;-75
2023/10/18 09:23:20;;;;;;;11.73;10.38;;;;;;;10.41;56.58;99051.88;5128119;28;20035;-75
2023/10/18 09:25:50;;;;;;;13.50;10.30;;;;;;;10.35;56.88;99058.38;5128054;28;20035;-75
2023/10/18 09:28:25;;;;;;;12.20;10.38;;;;;;;10.11;57.53;99042.13;5127781;28;20090;-74
2023/10/18 09:30:53;;;;;;;11.85;10.68;;;;;;;10.24;57.18;99074.06;5127817;28;20276;-75
2023/10/18 09:33:20;;;;;;;12.73;10.55;;;;;;;10.28;56.26;99041.16;5126877;28;20067;-75
2023/10/18 09:35:49;;;;;;;11.35;10.35;;;;;;;10.48;55.68;99039.97;5127313;28;20036;-75
2023/10/18 09:38:18;;;;;;;14.05;10.18;;;;;;;10.60;55.71;99047.19;5126573;28;20063;-75
2023/10/18 09:40:47;;;;;;;10.82;9.82;;;;;;;10.55;55.69;99058.06;5127657;28;20053;-75
2023/10/18 09:43:14;;;;;;;10.73;9.02;;;;;;;10.58;55.41;99044.63;5127797;28;20234;-75
2023/10/18 09:45:41;;;;;;;11.30;9.88;;;;;;;10.61;55.83;99040.94;5127868;28;20096;-75
2023/10/18 09:48:11;;;;;;;12.30;10.25;;;;;;;10.71;55.45;99054.47;5127865;28;20070;-75
2023/10/18 09:50:41;;;;;;;12.40;10.55;;;;;;;7.76;54.42;98534.13;5127651;28;20240;-76
2023/10/18 09:53:13;;;;;;;13.15;9.93;;;;;;;10.71;54.81;99033.28;5127671;28;20048;-75
2023/10/18 09:55:42;;;;;;;10.95;9.88;;;;;;;10.81;54.62;99026.50;5127720;28;20040;-73
2023/10/18 09:58:15;;;;;;;13.13;10.85;;;;;;;10.97;54.55;99015.81;5109760;28;20054;-73
2023/10/18 10:00:42;;;;;;;13.77;9.85;;;;;;;10.87;54.62;99029.63;5126175;28;20092;-74
2023/10/18 10:03:15;;;;;;;11.02;9.73;;;;;;;10.48;54.20;98955.19;5126708;28;20085;-74
2023/10/18 10:05:42;;;;;;;11.95;10.50;;;;;;;10.72;54.45;99003.19;5127488;28;20187;-74
2023/10/18 10:08:10;;;;;;;11.50;10.30;;;;;;;10.98;55.47;99014.84;5127271;28;20063;-74
2023/10/18 10:10:46;;;;;;;11.80;10.00;;;;;;;10.87;54.67;98994.31;5109240;28;20040;-74
2023/10/18 10:13:19;;;;;;;10.65;9.55;;;;;;;10.65;54.84;98962.94;5127007;28;20058;-74
2023/10/18 10:15:54;;;;;;;13.07;10.10;;;;;;;11.21;54.11;98999.22;5127179;28;20051;-75
2023/10/18 10:18:26;;;;;;;11.00;9.90;;;;;;;11.17;54.72;99015.41;5127231;28;20089;-74
2023/10/18 10:20:55;;;;;;;11.15;10.02;;;;;;;11.18;54.07;99012.66;5126335;28;20038;-74
2023/10/18 10:23:23;;;;;;;10.55;9.15;;;;;;;10.50;54.84;98909.09;5124669;28;20211;-75
2023/10/18 10:26:10;;;;;;;11.02;9.93;;;;;;;10.82;54.27;98912.41;5125828;28;20199;-75
2023/10/18 10:31:54;;;;;;;11.57;10.38;;;;;;;11.45;53.56;98987.97;5111127;28;20047;-75
2023/10/18 10:34:26;;;;;;;;;;;;;;;11.45;53.19;98982.66;5127401;28;20058;-75
2023/10/18 10:36:54;;;;;;;10.48;8.60;;;;;;;11.47;53.48;98970.16;5126871;28;19919;-75
2023/10/18 10:39:30;;;;;;;11.30;10.13;;;;;;;11.56;53.01;98961.59;5126262;28;20110;-75
2023/10/18 10:42:00;;;;;;;11.27;10.07;;;;;;;11.57;52.91;98963.28;5126641;28;20299;-75
2023/10/18 10:44:38;;;;;;;11.25;10.05;;;;;;;11.66;52.70;98964.50;5125324;28;20051;-75
2023/10/18 10:47:50;;;;;;;10.80;9.80;;;;;;;10.42;51.69;98722.44;5126616;28;20044;-75
2023/10/18 10:50:45;;;;;;;15.00;9.48;;;;;;;11.85;51.81;98949.91;5108450;28;20047;-75
2023/10/18 10:53:15;;;;;;;10.38;9.38;;;;;;;11.73;52.67;98956.03;5125282;28;20035;-75
2023/10/18 10:55:43;;;;;;;10.88;9.10;;;;;;;11.77;52.99;98954.88;5126689;28;20051;-75
2023/10/18 10:58:17;;;;;;;10.10;9.13;;;;;;;11.87;52.45;98950.66;5125587;28;20081;-75
2023/10/18 11:03:54;;;;;;;10.93;8.95;;;;;;;11.84;51.94;98928.75;5124484;27;20621;-76
2023/10/18 11:06:23;;;;;;;9.45;8.55;;;;;;;11.83;52.15;98930.56;5123631;28;20184;-75
2023/10/18 11:08:52;;;;;;;11.10;9.77;;;;;;;11.74;52.66;98939.16;5122569;28;20329;-76
2023/10/18 11:11:21;;;;;;;9.88;9.00;;;;;;;11.79;52.93;98929.06;5123623;28;20046;-76
2023/10/18 11:13:48;;;;;;;10.13;8.90;;;;;;;11.76;51.79;98926.63;5123226;28;20235;-76
2023/10/18 11:16:17;;;;;;;11.10;9.65;;;;;;;11.52;52.70;98883.13;5122227;28;20055;-75
2023/10/18 11:18:48;;;;;;;11.15;9.98;;;;;;;11.56;52.39;98889.94;5123235;28;20040;-75
2023/10/18 11:21:21;;;;;;;10.23;9.20;;;;;;;11.77;52.46;98930.13;5122225;28;20207;-75
2023/10/18 11:23:51;;;;;;;10.85;9.75;;;;;;;11.69;51.93;98914.72;5123391;28;20048;-75
2023/10/18 11:26:24;;;;;;;10.93;9.82;;;;;;;11.65;53.27;98918.53;5123243;28;20052;-74
2023/10/18 11:28:55;;;;;;;10.35;8.88;;;;;;;11.72;53.02;98909.19;5123044;28;20050;-74
2023/10/18 11:31:26;;;;;;;11.85;8.82;;;;;;;11.68;52.89;98907.69;5123196;28;20047;-74
2023/10/18 11:33:59;;;;;;;10.73;9.63;;;;;;;11.39;51.67;98858.38;5123195;28;20044;-74
2023/10/18 11:36:28;;;;;;;11.95;8.80;;;;;;;11.67;51.92;98898.03;5123197;28;20088;-74
2023/10/18 11:41:41;;;;;;;9.15;8.25;;;;;;;11.72;51.73;98895.94;5122998;28;20055;-75
2023/10/18 11:44:13;;;;;;;10.52;9.02;;;;;;;11.63;51.90;98877.97;5122727;28;20062;-74
2023/10/18 11:46:47;;;;;;;9.38;8.48;;;;;;;11.65;51.63;98877.84;5121908;28;20306;-74
2023/10/18 11:49:18;;;;;;;10.32;8.45;;;;;;;11.54;51.81;98878.56;5121778;28;20043;-75
2023/10/18 11:51:48;;;;;;;9.55;8.55;;;;;;;11.54;52.02;98865.31;5123021;28;20056;-75
2023/10/18 11:54:29;;;;;;;11.32;8.52;;;;;;;11.56;52.06;98860.75;5122515;28;20066;-75
2023/10/18 11:56:56;;;;;;;10.80;8.32;;;;;;;11.55;52.62;98861.69;5122573;28;20131;-75
2023/10/18 11:59:24;;;;;;;9.38;8.48;;;;;;;11.51;51.64;98866.34;5122248;28;20296;-75
2023/10/18 12:01:58;;;;;;;10.85;8.63;;;;;;;11.56;51.67;98863.41;5122528;28;20049;-74
2023/10/18 12:04:29;;;;;;;;;;;;;;;11.59;51.48;98843.75;5122930;28;20047;-74
2023/10/18 12:06:57;;;;;;;8.88;8.07;;;;;;;11.39;51.78;98842.44;5122600;28;19965;-74
2023/10/18 12:09:30;;;;;;;9.20;8.30;;;;;;;11.52;51.91;98845.97;5122187;28;20046;-74